createdAt,value
2017-08-26T00:02:13.241Z,10.60
2017-08-26T00:04:47.122Z,9.60
2017-08-26T00:07:21.225Z,10.13
2017-08-26T00:09:55.108Z,9.47
2017-08-26T00:12:29.700Z,11.60
2017-08-26T00:15:03.305Z,12.53
2017-08-26T00:17:37.581Z,11.57
2017-08-26T00:20:11.763Z,11.80
2017-08-26T00:22:45.311Z,12.07
2017-08-26T00:25:19.498Z,10.57
2017-08-26T00:27:53.745Z,12.43
2017-08-26T00:30:27.496Z,10.50
2017-08-26T00:33:01.503Z,12.10
2017-08-26T00:35:35.556Z,13.90
2017-08-26T00:38:09.589Z,11.37
2017-08-26T00:40:43.691Z,10.63
2017-08-26T00:43:17.551Z,15.33
2017-08-26T00:45:51.828Z,12.47
2017-08-26T00:48:25.963Z,11.40
2017-08-26T00:50:59.841Z,11.30
2017-08-26T00:53:33.832Z,11.83
2017-08-26T00:56:07.984Z,10.63
2017-08-26T00:58:41.921Z,12.63
2017-08-26T01:01:15.886Z,12.50
2017-08-26T01:03:49.757Z,11.97
2017-08-26T01:06:23.819Z,11.30
2017-08-26T01:08:57.877Z,12.50
2017-08-26T01:11:32.018Z,11.90
2017-08-26T01:14:05.912Z,11.40
2017-08-26T01:16:39.842Z,11.00
2017-08-26T01:19:13.736Z,11.13
2017-08-26T01:21:47.556Z,10.80
2017-08-26T01:24:21.670Z,13.03
2017-08-26T01:26:55.585Z,9.83
2017-08-26T01:29:29.594Z,14.35
2017-08-26T01:32:03.764Z,11.90
2017-08-26T01:34:37.450Z,10.77
2017-08-26T01:37:11.480Z,11.50
2017-08-26T01:39:45.625Z,10.57
2017-08-26T01:42:19.928Z,11.20
2017-08-26T01:44:54.187Z,10.70
2017-08-26T01:47:28.181Z,12.07
2017-08-26T01:50:02.296Z,14.00
2017-08-26T01:52:36.596Z,11.80
2017-08-26T01:55:10.743Z,13.60
2017-08-26T01:57:44.812Z,14.03
2017-08-26T02:00:28.903Z,11.70
2017-08-26T02:03:02.747Z,12.40
2017-08-26T02:05:37.003Z,13.07
2017-08-26T02:08:11.039Z,11.53
2017-08-26T02:10:44.992Z,11.87
2017-08-26T02:13:18.693Z,12.17
2017-08-26T02:15:53.149Z,12.13
2017-08-26T02:18:27.174Z,14.30
2017-08-26T02:21:01.360Z,10.80
2017-08-26T02:23:35.145Z,11.70
2017-08-26T02:26:09.139Z,11.27
2017-08-26T02:28:43.036Z,13.07
2017-08-26T02:31:16.900Z,11.73
2017-08-26T02:33:50.941Z,12.30
2017-08-26T02:36:25.947Z,11.97
2017-08-26T02:39:00.035Z,11.50
2017-08-26T02:41:34.256Z,11.20
2017-08-26T02:44:08.415Z,11.20
2017-08-26T02:46:42.901Z,13.80
2017-08-26T02:49:17.147Z,11.50
2017-08-26T02:51:51.432Z,14.87
2017-08-26T02:54:25.056Z,12.23
2017-08-26T02:56:59.177Z,12.33
2017-08-26T02:59:33.487Z,12.50
2017-08-26T03:02:07.855Z,13.80
2017-08-26T03:04:41.728Z,11.87
2017-08-26T03:07:15.917Z,13.07
2017-08-26T03:09:49.543Z,13.40
2017-08-26T03:12:23.573Z,13.73
2017-08-26T03:14:57.962Z,13.17
2017-08-26T03:17:31.587Z,14.47
2017-08-26T03:20:05.573Z,14.40
2017-08-26T03:22:39.686Z,15.40
2017-08-26T03:25:13.775Z,15.13
2017-08-26T03:27:47.783Z,13.90
2017-08-26T03:30:21.937Z,14.30
2017-08-26T03:32:56.422Z,14.33
2017-08-26T03:35:30.494Z,15.27
2017-08-26T03:38:04.075Z,14.63
2017-08-26T03:40:38.152Z,16.20
2017-08-26T03:43:12.387Z,15.47
2017-08-26T03:45:46.391Z,15.60
2017-08-26T03:48:20.631Z,15.23
2017-08-26T03:50:55.144Z,14.50
2017-08-26T03:53:29.209Z,12.43
2017-08-26T03:56:03.136Z,13.77
2017-08-26T03:58:37.304Z,15.00
2017-08-26T04:01:11.476Z,15.00
2017-08-26T04:03:45.507Z,14.73
2017-08-26T04:06:19.828Z,14.07
2017-08-26T04:08:53.322Z,13.87
2017-08-26T04:11:27.655Z,14.50
2017-08-26T04:14:02.043Z,12.90
2017-08-26T04:16:36.236Z,14.77
2017-08-26T04:19:10.169Z,15.70
2017-08-26T04:21:44.065Z,14.57
2017-08-26T04:24:17.984Z,16.07
2017-08-26T04:26:51.824Z,15.97
2017-08-26T04:29:26.017Z,16.90
2017-08-26T04:32:00.268Z,14.90
2017-08-26T04:34:33.764Z,19.03
2017-08-26T04:37:07.944Z,17.50
2017-08-26T04:39:42.310Z,16.60
2017-08-26T04:42:16.380Z,17.27
2017-08-26T04:44:50.408Z,16.33
2017-08-26T04:47:24.705Z,17.17
2017-08-26T04:49:58.871Z,17.23
2017-08-26T04:52:32.684Z,17.87
2017-08-26T04:55:06.575Z,17.00
2017-08-26T04:57:40.738Z,20.60
2017-08-26T05:00:14.785Z,18.33
2017-08-26T05:02:48.772Z,18.53
2017-08-26T05:05:22.806Z,17.53
2017-08-26T05:07:56.639Z,17.60
2017-08-26T05:10:30.884Z,19.70
2017-08-26T05:13:04.802Z,17.90
2017-08-26T05:15:39.166Z,23.87
2017-08-26T05:18:13.678Z,19.80
2017-08-26T05:20:48.080Z,21.50
2017-08-26T05:23:22.249Z,20.27
2017-08-26T05:25:56.218Z,20.83
2017-08-26T05:28:30.905Z,21.17
2017-08-26T05:31:04.605Z,31.13
2017-08-26T05:33:38.641Z,21.70
2017-08-26T05:36:12.730Z,16.53
2017-08-26T05:38:46.784Z,16.47
2017-08-26T05:41:21.252Z,17.90
2017-08-26T05:43:55.292Z,16.37
2017-08-26T05:46:29.240Z,16.33
2017-08-26T05:49:03.256Z,15.87
2017-08-26T05:51:37.343Z,14.23
2017-08-26T05:54:11.345Z,14.47
2017-08-26T05:56:45.740Z,16.73
2017-08-26T05:59:19.604Z,15.93
2017-08-26T06:01:53.603Z,12.83
2017-08-26T06:04:27.746Z,13.83
2017-08-26T06:07:01.714Z,14.40
2017-08-26T06:09:35.635Z,16.30
2017-08-26T06:12:09.723Z,15.17
2017-08-26T06:14:43.764Z,14.20
2017-08-26T06:17:17.621Z,16.10
2017-08-26T06:19:51.125Z,15.33
2017-08-26T06:22:25.096Z,15.43
2017-08-26T06:24:59.084Z,15.30
2017-08-26T06:27:33.117Z,18.00
2017-08-26T06:30:07.197Z,19.83
2017-08-26T06:32:41.284Z,17.20
2017-08-26T06:35:15.349Z,36.40
2017-08-26T06:37:49.388Z,24.63
2017-08-26T06:40:23.445Z,15.57
2017-08-26T06:42:57.598Z,15.13
2017-08-26T06:45:32.009Z,14.53
2017-08-26T06:48:06.203Z,15.43
2017-08-26T06:50:40.053Z,15.23
2017-08-26T06:53:14.041Z,14.20
2017-08-26T06:55:48.059Z,16.60
2017-08-26T06:58:21.702Z,14.20
2017-08-26T07:00:55.448Z,14.80
2017-08-26T07:03:28.916Z,15.63
2017-08-26T07:06:02.891Z,15.23
2017-08-26T07:08:36.855Z,14.73
2017-08-26T07:11:11.096Z,14.97
2017-08-26T07:13:45.104Z,14.80
2017-08-26T07:16:19.156Z,13.47
2017-08-26T07:18:53.028Z,13.50
2017-08-26T07:21:26.832Z,13.57
2017-08-26T07:24:00.512Z,14.73
2017-08-26T07:26:34.447Z,11.83
2017-08-26T07:29:08.576Z,13.20
2017-08-26T07:31:42.536Z,10.77
2017-08-26T07:34:16.459Z,12.30
2017-08-26T07:36:50.479Z,12.20
2017-08-26T07:39:24.685Z,11.47
2017-08-26T07:41:58.629Z,12.00
2017-08-26T07:44:32.735Z,11.33
2017-08-26T07:47:06.916Z,11.90
2017-08-26T07:49:40.896Z,11.30
2017-08-26T07:52:15.198Z,11.17
2017-08-26T07:54:49.086Z,11.67
2017-08-26T07:57:23.066Z,10.87
2017-08-26T07:59:57.079Z,10.70
2017-08-26T08:02:31.819Z,10.50
2017-08-26T08:05:06.126Z,9.63
2017-08-26T08:07:39.635Z,8.67
2017-08-26T08:10:13.579Z,8.90
2017-08-26T08:12:48.873Z,8.50
2017-08-26T08:15:22.700Z,8.80
2017-08-26T08:17:56.733Z,9.03
2017-08-26T08:20:30.289Z,11.40
2017-08-26T08:23:04.172Z,8.33
2017-08-26T08:25:38.052Z,8.40
2017-08-26T08:28:12.273Z,8.33
2017-08-26T08:30:46.083Z,8.13
2017-08-26T08:33:20.199Z,8.27
2017-08-26T08:35:54.304Z,9.03
2017-08-26T08:38:28.481Z,8.80
2017-08-26T08:41:02.693Z,7.70
2017-08-26T08:43:36.582Z,7.33
2017-08-26T08:46:11.225Z,8.30
2017-08-26T08:48:45.965Z,7.33
2017-08-26T08:51:19.556Z,7.60
2017-08-26T08:53:53.619Z,6.90
2017-08-26T08:56:27.699Z,7.63
2017-08-26T08:59:01.510Z,7.73
2017-08-26T09:01:35.332Z,6.97
2017-08-26T09:04:09.742Z,7.37
2017-08-26T09:06:43.611Z,7.47
2017-08-26T09:09:17.504Z,7.93
2017-08-26T09:11:51.766Z,7.30
2017-08-26T09:14:25.917Z,7.17
2017-08-26T09:17:00.340Z,9.73
2017-08-26T09:19:34.956Z,7.03
2017-08-26T09:22:08.884Z,6.67
2017-08-26T09:24:42.587Z,8.47
2017-08-26T09:27:16.645Z,8.27
2017-08-26T09:29:50.831Z,7.87
2017-08-26T09:32:25.225Z,7.67
2017-08-26T09:34:59.402Z,6.60
2017-08-26T09:37:34.062Z,8.03
2017-08-26T09:40:08.020Z,7.20
2017-08-26T09:42:42.395Z,8.03
2017-08-26T09:45:16.825Z,7.20
2017-08-26T09:47:50.606Z,7.20
2017-08-26T09:50:24.635Z,6.83
2017-08-26T09:52:58.585Z,7.43
2017-08-26T09:55:33.320Z,7.43
2017-08-26T09:58:07.453Z,7.50
2017-08-26T10:00:41.979Z,7.10
2017-08-26T10:03:16.390Z,7.13
2017-08-26T10:05:50.266Z,7.00
2017-08-26T10:08:24.417Z,8.03
2017-08-26T10:10:58.336Z,7.37
2017-08-26T10:13:32.453Z,7.13
2017-08-26T10:16:06.786Z,7.40
2017-08-26T10:18:40.988Z,7.13
2017-08-26T10:21:15.412Z,6.57
2017-08-26T10:23:49.346Z,7.30
2017-08-26T10:26:23.211Z,7.17
2017-08-26T10:28:57.283Z,7.70
2017-08-26T10:31:31.360Z,7.60
2017-08-26T10:34:05.281Z,7.63
2017-08-26T10:36:39.191Z,8.13
2017-08-26T10:39:13.476Z,7.37
2017-08-26T10:41:47.760Z,8.53
2017-08-26T10:44:22.004Z,7.50
2017-08-26T10:46:55.643Z,7.67
2017-08-26T10:49:29.699Z,8.70
2017-08-26T10:52:03.353Z,8.03
2017-08-26T10:54:36.958Z,7.97
2017-08-26T10:57:10.730Z,7.67
2017-08-26T10:59:44.608Z,9.50
2017-08-26T11:02:18.835Z,8.30
2017-08-26T11:04:52.273Z,7.90
2017-08-26T11:07:26.484Z,7.57
2017-08-26T11:10:00.094Z,8.03
2017-08-26T11:12:34.335Z,7.80
2017-08-26T11:15:08.489Z,7.70
2017-08-26T11:17:43.722Z,8.77
2017-08-26T11:20:17.351Z,7.70
2017-08-26T11:22:51.697Z,8.13
2017-08-26T11:25:25.974Z,7.80
2017-08-26T11:27:59.613Z,10.13
2017-08-26T11:30:33.101Z,8.97
2017-08-26T11:33:07.926Z,9.23
2017-08-26T11:35:42.110Z,9.13
2017-08-26T11:38:16.259Z,8.27
2017-08-26T11:40:50.689Z,8.30
2017-08-26T11:43:24.997Z,9.13
2017-08-26T11:45:58.587Z,9.30
2017-08-26T11:48:32.361Z,8.97
2017-08-26T11:51:06.588Z,9.05
2017-08-26T11:53:41.312Z,8.63
2017-08-26T11:56:15.473Z,9.50
2017-08-26T11:58:49.443Z,8.60
2017-08-26T12:01:23.232Z,9.88
2017-08-26T12:03:57.397Z,9.80
2017-08-26T12:06:31.309Z,9.55
2017-08-26T12:09:05.768Z,8.70
2017-08-26T12:11:40.106Z,11.00
2017-08-26T12:14:13.923Z,8.90
2017-08-26T12:16:48.111Z,9.40
2017-08-26T12:19:21.902Z,10.03
2017-08-26T12:21:55.656Z,9.73
2017-08-26T12:24:29.662Z,9.60
2017-08-26T12:27:03.392Z,9.27
2017-08-26T12:29:37.947Z,10.33
2017-08-26T12:32:12.335Z,8.68
2017-08-26T12:34:47.859Z,8.80
2017-08-26T12:37:21.724Z,8.47
2017-08-26T12:39:55.768Z,8.35
2017-08-26T12:42:29.682Z,8.57
2017-08-26T12:45:03.799Z,8.30
2017-08-26T12:47:37.364Z,8.55
2017-08-26T12:50:11.839Z,8.05
2017-08-26T12:52:45.823Z,8.70
2017-08-26T12:55:20.184Z,9.98
2017-08-26T12:57:54.768Z,8.95
2017-08-26T13:00:28.286Z,10.00
2017-08-26T13:03:02.042Z,7.90
2017-08-26T13:05:35.868Z,8.83
2017-08-26T13:08:09.723Z,9.10
2017-08-26T13:10:43.639Z,8.60
2017-08-26T13:13:17.810Z,8.82
2017-08-26T13:15:51.610Z,8.57
2017-08-26T13:18:25.081Z,9.23
2017-08-26T13:20:58.962Z,8.90
2017-08-26T13:23:32.880Z,8.50
2017-08-26T13:26:06.848Z,8.50
2017-08-26T13:28:42.095Z,7.85
2017-08-26T13:31:16.604Z,8.00
2017-08-26T13:33:50.543Z,7.97
2017-08-26T13:36:24.418Z,8.00
2017-08-26T13:38:58.280Z,9.15
2017-08-26T13:41:32.144Z,8.68
2017-08-26T13:44:06.171Z,8.23
2017-08-26T13:46:40.201Z,8.02
2017-08-26T13:49:14.414Z,8.70
2017-08-26T13:51:48.193Z,8.60
2017-08-26T13:54:21.947Z,8.50
2017-08-26T13:56:56.004Z,9.18
2017-08-26T13:59:30.100Z,8.05
2017-08-26T14:02:04.419Z,8.15
2017-08-26T14:04:39.374Z,8.80
2017-08-26T14:07:13.695Z,7.90
2017-08-26T14:09:48.409Z,8.10
2017-08-26T14:12:23.037Z,8.75
2017-08-26T14:14:56.870Z,8.90
2017-08-26T14:17:30.805Z,8.68
2017-08-26T14:20:04.669Z,8.38
2017-08-26T14:22:38.671Z,7.97
2017-08-26T14:25:12.488Z,7.62
2017-08-26T14:27:46.576Z,8.25
2017-08-26T14:30:19.904Z,8.20
2017-08-26T14:32:54.006Z,8.60
2017-08-26T14:35:27.840Z,8.37
2017-08-26T14:38:01.897Z,8.40
2017-08-26T14:40:35.625Z,10.60
2017-08-26T14:43:09.530Z,8.27
2017-08-26T14:45:43.284Z,8.20
2017-08-26T14:48:17.657Z,8.13
2017-08-26T14:50:51.756Z,8.50
2017-08-26T14:53:25.788Z,8.50
2017-08-26T14:56:00.612Z,9.60
2017-08-26T14:58:34.551Z,9.33
2017-08-26T15:01:08.689Z,9.33
2017-08-26T15:03:43.584Z,9.00
2017-08-26T15:06:17.403Z,9.77
2017-08-26T15:08:51.163Z,9.53
2017-08-26T15:11:25.156Z,10.10
2017-08-26T15:13:59.005Z,9.60
2017-08-26T15:16:32.537Z,9.77
2017-08-26T15:19:06.230Z,9.10
2017-08-26T15:21:40.146Z,9.70
2017-08-26T15:24:14.177Z,10.50
2017-08-26T15:26:47.908Z,9.80
2017-08-26T15:29:21.855Z,10.70
2017-08-26T15:31:55.702Z,12.20
2017-08-26T15:34:29.939Z,12.03
2017-08-26T15:37:03.611Z,10.73
2017-08-26T15:39:37.457Z,11.17
2017-08-26T15:42:11.437Z,10.30
2017-08-26T15:44:45.129Z,10.83
2017-08-26T15:47:18.848Z,10.67
2017-08-26T15:49:52.717Z,14.37
2017-08-26T15:52:26.908Z,10.93
2017-08-26T15:55:00.513Z,11.10
2017-08-26T15:57:34.360Z,10.00
2017-08-26T16:00:08.759Z,10.53
2017-08-26T16:02:43.085Z,9.70
2017-08-26T16:05:17.086Z,10.07
2017-08-26T16:07:51.632Z,10.53
2017-08-26T16:10:25.711Z,10.00
2017-08-26T16:12:59.675Z,13.37
2017-08-26T16:15:34.384Z,12.30
2017-08-26T16:18:08.809Z,19.07
2017-08-26T16:20:43.219Z,11.30
2017-08-26T16:23:17.174Z,14.03
2017-08-26T16:25:51.162Z,12.37
2017-08-26T16:28:25.259Z,16.80
2017-08-26T16:30:59.346Z,14.93
2017-08-26T16:33:33.460Z,11.77
2017-08-26T16:36:06.980Z,11.27
2017-08-26T16:38:40.701Z,11.60
2017-08-26T16:41:14.573Z,11.00
2017-08-26T16:43:48.602Z,11.10
2017-08-26T16:46:22.753Z,11.43
2017-08-26T16:48:56.873Z,10.77
2017-08-26T16:51:30.662Z,10.50
2017-08-26T16:54:04.436Z,37.60
2017-08-26T16:56:38.891Z,26.37
2017-08-26T16:59:12.338Z,15.20
2017-08-26T17:01:46.674Z,14.70
2017-08-26T17:04:20.212Z,12.47
2017-08-26T17:06:54.179Z,12.90
2017-08-26T17:09:27.817Z,13.33
2017-08-26T17:12:01.680Z,12.30
2017-08-26T17:14:35.552Z,12.33
2017-08-26T17:17:09.687Z,11.83
2017-08-26T17:19:43.062Z,10.93
2017-08-26T17:22:17.036Z,12.00
2017-08-26T17:24:51.727Z,11.13
2017-08-26T17:27:25.559Z,11.77
2017-08-26T17:29:59.456Z,12.00
2017-08-26T17:32:33.416Z,11.33
2017-08-26T17:35:07.319Z,11.20
2017-08-26T17:37:41.387Z,10.87
2017-08-26T17:40:14.952Z,11.93
2017-08-26T17:42:48.632Z,11.03
2017-08-26T17:45:22.793Z,12.50
2017-08-26T17:47:56.838Z,12.00
2017-08-26T17:50:30.648Z,11.17
2017-08-26T17:53:04.373Z,10.50
2017-08-26T17:55:38.213Z,10.97
2017-08-26T17:58:12.251Z,11.90
2017-08-26T18:00:46.420Z,11.20
2017-08-26T18:03:19.949Z,10.63
2017-08-26T18:05:53.921Z,10.53
2017-08-26T18:08:27.780Z,11.50
2017-08-26T18:11:01.632Z,10.10
2017-08-26T18:13:35.588Z,10.90
2017-08-26T18:16:09.413Z,10.70
2017-08-26T18:18:43.191Z,10.90
2017-08-26T18:21:17.168Z,10.80
2017-08-26T18:23:51.149Z,11.97
2017-08-26T18:26:25.265Z,10.43
2017-08-26T18:28:59.111Z,11.00
2017-08-26T19:33:22.461Z,11.50
2017-08-26T19:35:56.560Z,10.97
2017-08-26T19:38:30.432Z,13.10
2017-08-26T19:41:04.404Z,12.13
2017-08-26T19:43:38.259Z,11.87
2017-08-26T19:46:12.256Z,11.17
2017-08-26T19:48:45.988Z,10.90
2017-08-26T19:51:19.826Z,14.40
2017-08-26T19:53:53.575Z,10.67
2017-08-26T19:56:27.558Z,10.73
2017-08-26T19:59:01.302Z,11.20
2017-08-26T20:01:35.099Z,12.03
2017-08-26T20:04:08.660Z,11.07
2017-08-26T20:06:42.600Z,12.37
2017-08-26T20:09:16.961Z,15.90
2017-08-26T20:11:51.055Z,15.67
2017-08-26T20:14:24.984Z,18.83
2017-08-26T20:16:58.908Z,13.30
2017-08-26T20:19:32.679Z,11.77
2017-08-26T20:22:06.598Z,10.60
2017-08-26T20:24:40.373Z,11.73
2017-08-26T20:27:14.421Z,11.13
2017-08-26T20:29:48.618Z,11.20
2017-08-26T20:32:22.387Z,11.80
2017-08-26T20:34:55.960Z,10.47
2017-08-26T20:37:30.167Z,11.63
2017-08-26T20:40:04.128Z,11.00
2017-08-26T20:42:38.008Z,10.37
2017-08-26T20:45:11.993Z,12.30
2017-08-26T20:47:45.775Z,12.23
2017-08-26T21:31:41.879Z,13.03
2017-08-26T21:34:15.224Z,12.63
2017-08-26T21:36:48.995Z,11.98
2017-08-26T21:39:22.634Z,12.27
2017-08-26T21:41:57.384Z,13.70
2017-08-26T21:44:31.352Z,11.97
2017-08-26T21:47:04.992Z,13.43
2017-08-26T21:49:39.143Z,13.00
2017-08-26T21:52:13.124Z,11.87
2017-08-26T21:54:46.964Z,11.17
2017-08-26T21:57:20.777Z,10.90
2017-08-26T21:59:54.727Z,11.10
2017-08-26T22:02:28.608Z,10.70
2017-08-26T22:05:02.461Z,12.27
2017-08-26T22:07:36.343Z,10.70
2017-08-26T22:10:10.180Z,14.30
2017-08-26T22:12:44.141Z,14.03
2017-08-26T22:15:18.055Z,12.70
2017-08-26T22:17:52.118Z,11.50
2017-08-26T22:20:26.152Z,10.17
2017-08-26T22:23:00.098Z,10.73
2017-08-26T22:25:34.274Z,10.70
2017-08-26T22:28:08.135Z,10.20
2017-08-26T22:30:42.076Z,10.40
2017-08-26T22:33:15.564Z,10.23
2017-08-26T22:35:49.208Z,10.87
2017-08-26T22:38:23.251Z,10.10
2017-08-26T22:40:57.096Z,10.23
2017-08-26T22:43:30.955Z,8.87
2017-08-26T22:46:05.095Z,9.43
2017-08-26T22:48:39.254Z,9.83
2017-08-26T22:51:12.915Z,8.67
2017-08-26T22:53:46.869Z,8.63
2017-08-26T22:56:20.822Z,8.70
2017-08-26T22:58:54.575Z,8.77
2017-08-26T23:01:28.330Z,8.57
2017-08-26T23:04:02.117Z,9.60
2017-08-26T23:06:35.973Z,9.43
2017-08-26T23:09:10.014Z,9.40
2017-08-26T23:11:43.977Z,10.60
2017-08-26T23:14:18.045Z,9.43
2017-08-26T23:16:51.943Z,10.07
2017-08-26T23:31:12.470Z,12.80
2017-08-26T23:33:46.296Z,10.50
2017-08-26T23:36:20.253Z,12.83
2017-08-26T23:38:54.671Z,16.10
2017-08-26T23:41:28.564Z,15.17
2017-08-26T23:44:02.533Z,13.87
2017-08-26T23:46:36.923Z,15.57
2017-08-26T23:49:10.671Z,13.50
2017-08-26T23:51:44.444Z,14.93
2017-08-26T23:54:18.180Z,14.40
2017-08-26T23:56:52.157Z,16.20
2017-08-26T23:59:26.012Z,13.53
